createdAt,value
2022-12-26T00:00:36.375Z,419.89
2022-12-26T00:03:45.612Z,450.74
2022-12-26T00:06:52.183Z,486.92
2022-12-26T00:09:59.191Z,419.51
2022-12-26T00:13:39.789Z,403.38
2022-12-26T00:16:32.642Z,416.87
2022-12-26T00:19:41.167Z,454.14
2022-12-26T00:22:47.555Z,427.28
2022-12-26T00:25:53.385Z,411.81
2022-12-26T00:29:00.732Z,425.34
2022-12-26T00:32:06.861Z,425.57
2022-12-26T00:35:15.995Z,422.69
2022-12-26T00:38:21.783Z,439.83
2022-12-26T00:41:28.744Z,417.93
2022-12-26T00:44:34.425Z,429.44
2022-12-26T00:47:40.912Z,426.27
2022-12-26T00:50:49.297Z,441.91
2022-12-26T00:53:55.843Z,482.44
2022-12-26T00:57:01.471Z,471.00
2022-12-26T01:00:10.979Z,475.98
2022-12-26T01:03:17.042Z,467.30
2022-12-26T01:06:27.973Z,453.36
2022-12-26T01:09:33.668Z,452.98
2022-12-26T01:12:40.592Z,461.05
2022-12-26T01:15:52.862Z,453.13
2022-12-26T01:18:59.314Z,436.03
2022-12-26T01:22:08.117Z,450.45
2022-12-26T01:25:15.870Z,439.94
2022-12-26T01:28:21.615Z,445.06
2022-12-26T01:31:29.209Z,517.14
2022-12-26T01:34:35.844Z,499.88
2022-12-26T01:37:45.015Z,495.68
2022-12-26T01:41:12.301Z,511.93
2022-12-26T01:44:59.652Z,468.80
2022-12-26T01:48:15.957Z,478.72
2022-12-26T01:51:27.034Z,493.96
2022-12-26T01:54:42.993Z,486.56
2022-12-26T01:57:59.619Z,507.52
2022-12-26T02:01:11.060Z,673.37
2022-12-26T02:04:37.861Z,613.62
2022-12-26T02:07:49.387Z,494.16
2022-12-26T02:11:11.114Z,463.88
2022-12-26T02:14:18.038Z,463.95
2022-12-26T02:17:24.616Z,451.73
2022-12-26T02:20:43.919Z,465.85
2022-12-26T02:24:29.977Z,461.86
2022-12-26T02:28:30.756Z,466.16
2022-12-26T02:31:56.504Z,452.46
2022-12-26T02:35:24.715Z,448.52
2022-12-26T02:38:50.518Z,446.53
2022-12-26T02:42:17.910Z,426.54
2022-12-26T02:45:49.801Z,428.99
2022-12-26T02:49:16.312Z,444.36
2022-12-26T02:52:51.632Z,451.82
2022-12-26T02:56:25.841Z,422.60
2022-12-26T03:00:01.763Z,420.11
2022-12-26T03:03:29.981Z,456.23
2022-12-26T03:06:56.972Z,543.89
2022-12-26T03:10:24.904Z,652.59
2022-12-26T03:13:39.693Z,521.85
2022-12-26T03:17:09.593Z,491.01
2022-12-26T03:20:21.326Z,512.63
2022-12-26T03:23:34.954Z,496.40
2022-12-26T03:26:53.007Z,500.98
2022-12-26T03:30:14.936Z,503.12
2022-12-26T03:33:35.542Z,517.51
2022-12-26T03:37:04.625Z,741.75
2022-12-26T03:40:58.823Z,1286.02
2022-12-26T03:44:45.087Z,678.13
2022-12-26T03:48:21.151Z,521.37
2022-12-26T03:51:54.316Z,471.31
2022-12-26T03:55:25.165Z,438.75
2022-12-26T03:58:58.741Z,344.93
2022-12-26T04:02:25.692Z,319.57
2022-12-26T04:05:48.601Z,295.45
2022-12-26T04:09:17.302Z,295.39
2022-12-26T04:12:45.148Z,386.99
2022-12-26T04:16:15.301Z,447.08
2022-12-26T04:19:58.915Z,440.22
2022-12-26T04:23:29.108Z,505.38
2022-12-26T04:26:55.981Z,549.75
2022-12-26T04:30:14.229Z,456.47
2022-12-26T04:33:50.333Z,461.65
2022-12-26T04:37:17.617Z,464.88
2022-12-26T04:40:47.236Z,456.74
2022-12-26T04:44:12.093Z,387.59
2022-12-26T04:47:18.920Z,346.29
2022-12-26T04:50:24.502Z,283.95
2022-12-26T04:53:31.240Z,217.89
2022-12-26T04:56:37.580Z,207.78
2022-12-26T04:59:44.156Z,189.24
2022-12-26T05:03:02.317Z,186.05
2022-12-26T05:06:25.623Z,176.10
2022-12-26T05:09:37.561Z,153.57
2022-12-26T05:12:44.208Z,156.57
2022-12-26T05:16:02.340Z,148.17
2022-12-26T05:19:24.420Z,129.66
2022-12-26T05:22:50.171Z,135.48
2022-12-26T05:26:08.982Z,145.14
2022-12-26T05:29:14.665Z,166.52
2022-12-26T05:32:33.539Z,188.63
2022-12-26T05:35:40.103Z,191.52
2022-12-26T05:38:50.160Z,183.10
2022-12-26T05:41:55.733Z,172.31
2022-12-26T05:45:02.146Z,160.48
2022-12-26T05:48:08.577Z,162.05
2022-12-26T05:51:15.198Z,142.85
2022-12-26T05:54:23.443Z,121.99
2022-12-26T05:57:29.956Z,122.51
2022-12-26T06:00:35.684Z,135.44
2022-12-26T06:03:44.364Z,137.83
2022-12-26T06:06:50.546Z,140.04
2022-12-26T06:09:59.595Z,140.72
2022-12-26T06:13:05.332Z,135.77
2022-12-26T06:16:14.979Z,133.53
2022-12-26T06:19:20.858Z,133.87
2022-12-26T06:22:27.402Z,135.69
2022-12-26T06:25:35.628Z,132.37
2022-12-26T06:28:44.142Z,136.22
2022-12-26T06:31:50.518Z,141.13
2022-12-26T06:34:56.987Z,142.09
2022-12-26T06:38:02.636Z,139.78
2022-12-26T06:41:19.389Z,141.76
2022-12-26T06:44:25.271Z,135.72
2022-12-26T06:47:32.526Z,129.95
2022-12-26T06:50:39.945Z,127.76
2022-12-26T06:53:46.782Z,128.47
2022-12-26T06:56:54.960Z,132.73
2022-12-26T07:00:01.587Z,132.64
2022-12-26T07:03:07.559Z,144.76
2022-12-26T07:06:23.644Z,141.48
2022-12-26T07:09:33.695Z,140.15
2022-12-26T07:12:42.970Z,138.13
2022-12-26T07:15:48.645Z,143.34
2022-12-26T07:18:56.867Z,142.81
2022-12-26T07:22:02.475Z,144.28
2022-12-26T07:25:11.275Z,146.82
2022-12-26T07:28:19.532Z,144.67
2022-12-26T07:31:29.183Z,140.94
2022-12-26T07:34:34.976Z,150.66
2022-12-26T07:37:41.668Z,162.91
2022-12-26T07:40:48.595Z,157.38
2022-12-26T07:43:58.396Z,157.93
2022-12-26T07:47:04.736Z,144.82
2022-12-26T07:50:12.692Z,142.06
2022-12-26T07:53:18.840Z,144.06
2022-12-26T07:56:25.806Z,136.96
2022-12-26T07:59:34.197Z,145.41
2022-12-26T08:02:43.901Z,146.76
2022-12-26T08:05:54.871Z,147.80
2022-12-26T08:09:01.487Z,141.03
2022-12-26T08:12:10.043Z,145.83
2022-12-26T08:15:19.281Z,150.52
2022-12-26T08:18:27.352Z,138.81
2022-12-26T08:21:34.620Z,141.48
2022-12-26T08:24:44.617Z,149.08
2022-12-26T08:27:52.628Z,155.79
2022-12-26T08:31:01.538Z,164.53
2022-12-26T08:34:10.130Z,172.60
2022-12-26T08:37:18.141Z,162.03
2022-12-26T08:40:41.880Z,152.75
2022-12-26T08:44:25.889Z,149.30
2022-12-26T08:47:26.801Z,245.31
2022-12-26T08:50:40.814Z,175.76
2022-12-26T08:53:52.402Z,166.20
2022-12-26T08:56:58.078Z,159.31
2022-12-26T09:00:04.848Z,166.99
2022-12-26T09:03:13.256Z,166.67
2022-12-26T09:06:19.981Z,161.06
2022-12-26T09:09:25.746Z,151.43
2022-12-26T09:12:32.275Z,148.74
2022-12-26T09:15:37.963Z,152.19
2022-12-26T09:18:48.776Z,156.28
2022-12-26T09:22:17.856Z,173.36
2022-12-26T09:25:29.520Z,143.57
2022-12-26T09:28:35.739Z,147.11
2022-12-26T09:31:43.440Z,152.35
2022-12-26T09:34:52.369Z,152.76
2022-12-26T09:37:58.815Z,178.06
2022-12-26T09:41:39.474Z,167.86
2022-12-26T09:45:01.309Z,176.53
2022-12-26T09:48:19.700Z,167.70
2022-12-26T09:51:34.018Z,168.75
2022-12-26T09:54:59.416Z,189.91
2022-12-26T09:58:22.057Z,185.88
2022-12-26T10:01:43.696Z,199.81
2022-12-26T10:04:52.636Z,188.90
2022-12-26T10:08:17.755Z,167.74
2022-12-26T10:11:44.242Z,156.33
2022-12-26T10:15:06.498Z,159.74
2022-12-26T10:18:40.817Z,159.39
2022-12-26T10:22:02.939Z,160.94
2022-12-26T10:25:28.739Z,153.72
2022-12-26T10:28:48.380Z,157.65
2022-12-26T10:32:04.532Z,153.31
2022-12-26T10:35:30.608Z,157.26
2022-12-26T10:38:44.559Z,163.50
2022-12-26T10:41:59.771Z,166.93
2022-12-26T10:45:20.143Z,175.85
2022-12-26T10:48:32.083Z,171.66
2022-12-26T10:51:40.107Z,162.17
2022-12-26T10:54:50.366Z,164.92
2022-12-26T10:58:27.639Z,167.24
2022-12-26T11:01:39.449Z,172.52
2022-12-26T11:05:18.450Z,195.62
2022-12-26T11:08:43.875Z,178.23
2022-12-26T11:11:55.531Z,166.75
2022-12-26T11:15:20.021Z,145.84
2022-12-26T11:18:40.415Z,150.75
2022-12-26T11:21:46.269Z,148.13
2022-12-26T11:25:23.660Z,137.98
2022-12-26T11:28:35.573Z,136.56
2022-12-26T11:31:57.417Z,142.35
2022-12-26T11:35:03.348Z,144.83
2022-12-26T11:38:38.970Z,138.87
2022-12-26T11:41:50.314Z,148.09
2022-12-26T11:45:04.044Z,144.53
2022-12-26T11:48:27.767Z,138.87
2022-12-26T11:51:43.528Z,133.20
2022-12-26T11:54:53.911Z,148.91
2022-12-26T11:58:06.680Z,148.05
2022-12-26T12:01:20.563Z,155.10
2022-12-26T12:04:34.106Z,149.18
2022-12-26T12:08:26.697Z,159.46
2022-12-26T12:11:52.265Z,158.95
2022-12-26T12:15:14.936Z,146.82
2022-12-26T12:18:41.241Z,161.96
2022-12-26T12:22:16.239Z,148.91
2022-12-26T12:25:43.702Z,146.95
2022-12-26T12:29:26.094Z,140.57
2022-12-26T12:32:58.659Z,159.13
2022-12-26T12:36:14.678Z,162.77
2022-12-26T12:39:48.006Z,159.97
2022-12-26T12:43:13.901Z,149.77
2022-12-26T12:46:40.718Z,148.81
2022-12-26T12:50:11.044Z,140.98
2022-12-26T12:53:41.177Z,131.91
2022-12-26T12:57:05.400Z,131.85
2022-12-26T13:00:21.820Z,134.64
2022-12-26T13:03:40.679Z,141.18
2022-12-26T13:06:57.627Z,128.82
2022-12-26T13:10:16.742Z,127.67
2022-12-26T13:13:38.173Z,128.37
2022-12-26T13:16:53.548Z,127.90
2022-12-26T13:20:08.179Z,133.50
2022-12-26T13:23:41.358Z,139.47
2022-12-26T13:26:58.550Z,133.03
2022-12-26T13:30:20.581Z,147.46
2022-12-26T13:33:28.425Z,156.06
2022-12-26T13:36:47.435Z,151.50
2022-12-26T13:39:56.548Z,161.25
2022-12-26T13:43:32.875Z,137.68
2022-12-26T13:47:00.205Z,132.98
2022-12-26T13:50:55.253Z,132.07
2022-12-26T13:54:16.262Z,144.16
2022-12-26T13:57:40.350Z,150.06
2022-12-26T14:00:53.272Z,147.06
2022-12-26T14:04:39.858Z,140.92
2022-12-26T14:08:01.545Z,129.66
2022-12-26T14:11:39.510Z,136.16
2022-12-26T14:15:10.525Z,140.84
2022-12-26T14:18:38.285Z,141.07
2022-12-26T14:22:03.956Z,147.88
2022-12-26T14:25:28.020Z,159.40
2022-12-26T14:28:59.554Z,148.41
2022-12-26T14:32:31.378Z,165.00
2022-12-26T14:35:50.766Z,193.52
2022-12-26T14:39:15.161Z,144.34
2022-12-26T14:42:39.153Z,157.81
2022-12-26T14:45:51.124Z,237.79
2022-12-26T14:49:02.368Z,145.30
2022-12-26T14:52:43.461Z,142.74
2022-12-26T14:55:56.879Z,139.67
2022-12-26T14:59:33.062Z,141.99
2022-12-26T15:02:47.836Z,156.55
2022-12-26T15:05:54.799Z,138.68
2022-12-26T15:09:31.574Z,139.72
2022-12-26T15:13:35.148Z,138.51
2022-12-26T15:17:07.385Z,136.34
2022-12-26T15:20:53.675Z,137.96
2022-12-26T15:25:21.547Z,133.44
2022-12-26T15:29:10.472Z,137.08
2022-12-26T15:32:38.745Z,136.00
2022-12-26T15:36:02.940Z,129.31
2022-12-26T15:39:30.255Z,122.93
2022-12-26T15:42:59.636Z,124.36
2022-12-26T15:46:21.668Z,127.78
2022-12-26T15:50:00.671Z,132.47
2022-12-26T15:53:29.500Z,139.38
2022-12-26T15:57:05.589Z,139.08
2022-12-26T16:00:23.923Z,146.93
2022-12-26T16:03:52.722Z,191.80
2022-12-26T16:07:20.228Z,146.77
2022-12-26T16:10:37.481Z,174.04
2022-12-26T16:13:58.960Z,149.10
2022-12-26T16:17:25.035Z,159.39
2022-12-26T16:20:48.528Z,151.14
2022-12-26T16:23:59.418Z,152.87
2022-12-26T16:27:12.115Z,153.68
2022-12-26T16:30:28.118Z,154.87
2022-12-26T16:33:42.843Z,166.46
2022-12-26T16:36:53.074Z,203.91
2022-12-26T16:40:27.078Z,176.06
2022-12-26T16:43:36.211Z,173.71
2022-12-26T16:46:42.921Z,161.65
2022-12-26T16:49:48.976Z,161.42
2022-12-26T16:53:14.005Z,172.93
2022-12-26T16:56:36.561Z,168.28
2022-12-26T16:59:58.281Z,166.03
2022-12-26T17:03:10.824Z,162.71
2022-12-26T17:06:27.375Z,166.93
2022-12-26T17:09:44.889Z,276.65
2022-12-26T17:12:57.439Z,409.71
2022-12-26T17:16:13.790Z,386.84
2022-12-26T17:19:24.060Z,305.97
2022-12-26T17:22:36.023Z,214.02
2022-12-26T17:25:48.843Z,184.37
2022-12-26T17:29:01.364Z,171.21
2022-12-26T17:32:11.616Z,187.11
2022-12-26T17:35:26.476Z,241.63
2022-12-26T17:38:34.517Z,209.51
2022-12-26T17:41:46.511Z,235.45
2022-12-26T17:44:56.988Z,186.09
2022-12-26T17:48:02.806Z,181.11
2022-12-26T17:51:17.454Z,169.83
2022-12-26T17:54:23.208Z,167.32
2022-12-26T17:57:32.325Z,175.37
2022-12-26T18:00:40.626Z,181.93
2022-12-26T18:03:47.100Z,180.88
2022-12-26T18:06:52.934Z,182.78
2022-12-26T18:09:59.745Z,174.58
2022-12-26T18:13:06.427Z,171.24
2022-12-26T18:16:25.111Z,170.46
2022-12-26T18:19:31.283Z,170.80
2022-12-26T18:22:38.033Z,176.11
2022-12-26T18:25:43.784Z,172.30
2022-12-26T18:28:54.129Z,176.40
2022-12-26T18:32:02.318Z,182.64
2022-12-26T18:35:10.221Z,184.64
2022-12-26T18:38:18.887Z,183.59
2022-12-26T18:41:25.389Z,185.93
2022-12-26T18:44:30.986Z,185.40
2022-12-26T18:47:40.026Z,197.11
2022-12-26T18:50:47.197Z,191.44
2022-12-26T18:53:54.051Z,191.14
2022-12-26T18:56:59.756Z,192.76
2022-12-26T19:00:11.240Z,196.72
2022-12-26T19:03:19.438Z,195.05
2022-12-26T19:06:29.910Z,198.17
2022-12-26T19:09:35.566Z,197.81
2022-12-26T19:12:42.276Z,205.62
2022-12-26T19:15:50.148Z,213.51
2022-12-26T19:18:59.147Z,226.01
2022-12-26T19:22:04.907Z,247.66
2022-12-26T19:25:12.256Z,229.34
2022-12-26T19:28:17.927Z,231.41
2022-12-26T19:31:27.086Z,220.47
2022-12-26T19:34:36.390Z,208.33
2022-12-26T19:37:43.830Z,202.14
2022-12-26T19:40:49.432Z,211.62
2022-12-26T19:43:59.313Z,214.71
2022-12-26T19:47:12.539Z,226.60
2022-12-26T19:50:22.699Z,267.97
2022-12-26T19:53:28.512Z,296.07
2022-12-26T19:56:39.257Z,286.27
2022-12-26T19:59:44.875Z,230.98
2022-12-26T20:02:52.778Z,198.16
2022-12-26T20:06:03.872Z,200.42
2022-12-26T20:09:14.364Z,199.85
2022-12-26T20:12:20.092Z,191.75
2022-12-26T20:15:26.785Z,184.00
2022-12-26T20:18:32.718Z,202.45
2022-12-26T20:21:44.541Z,206.82
2022-12-26T20:24:51.020Z,211.98
2022-12-26T20:27:57.918Z,225.98
2022-12-26T20:31:11.532Z,224.15
2022-12-26T20:34:22.918Z,241.69
2022-12-26T20:37:32.248Z,225.20
2022-12-26T20:40:39.044Z,206.48
2022-12-26T20:43:45.209Z,182.67
2022-12-26T20:46:51.695Z,183.11
2022-12-26T20:49:57.354Z,203.04
2022-12-26T20:53:08.715Z,227.70
2022-12-26T20:56:16.351Z,232.52
2022-12-26T20:59:23.108Z,266.31
2022-12-26T21:02:28.892Z,283.99
2022-12-26T21:05:35.396Z,217.32
2022-12-26T21:08:47.454Z,213.96
2022-12-26T21:11:53.975Z,245.50
2022-12-26T21:14:59.690Z,250.04
2022-12-26T21:18:07.199Z,231.34
2022-12-26T21:21:16.802Z,231.33
2022-12-26T21:24:29.588Z,234.46
2022-12-26T21:27:35.439Z,220.82
2022-12-26T21:30:47.284Z,211.41
2022-12-26T21:33:58.867Z,214.15
2022-12-26T21:37:18.201Z,192.10
2022-12-26T21:40:27.726Z,182.14
2022-12-26T21:43:34.231Z,179.11
2022-12-26T21:46:39.909Z,183.04
2022-12-26T21:49:46.524Z,184.36
2022-12-26T21:52:52.145Z,176.23
2022-12-26T21:56:08.159Z,188.65
2022-12-26T21:59:29.079Z,175.85
2022-12-26T22:02:51.988Z,176.81
2022-12-26T22:05:58.224Z,182.45
2022-12-26T22:09:06.780Z,182.36
2022-12-26T22:12:27.924Z,170.86
2022-12-26T22:15:47.624Z,175.49
2022-12-26T22:18:53.469Z,164.12
2022-12-26T22:22:00.015Z,164.99
2022-12-26T22:25:05.697Z,162.47
2022-12-26T22:28:20.192Z,161.59
2022-12-26T22:31:32.584Z,158.16
2022-12-26T22:34:43.785Z,162.80
2022-12-26T22:37:50.411Z,169.77
2022-12-26T22:41:02.357Z,167.28
2022-12-26T22:44:11.497Z,170.08
2022-12-26T22:47:18.574Z,167.02
2022-12-26T22:50:26.718Z,161.33
2022-12-26T22:53:34.623Z,167.23
2022-12-26T22:56:40.446Z,163.05
2022-12-26T23:03:16.753Z,156.90
2022-12-26T23:06:27.926Z,155.69
2022-12-26T23:09:34.074Z,155.69
2022-12-26T23:12:47.224Z,154.09
2022-12-26T23:16:12.956Z,156.64
2022-12-26T23:19:41.252Z,159.92
2022-12-26T23:22:47.642Z,164.42
2022-12-26T23:25:54.277Z,167.69
2022-12-26T23:29:12.301Z,171.79
2022-12-26T23:32:21.355Z,169.28
2022-12-26T23:35:28.896Z,161.09
2022-12-26T23:38:38.289Z,161.30
2022-12-26T23:41:43.991Z,154.68
2022-12-26T23:44:50.473Z,152.80
2022-12-26T23:47:58.885Z,153.10
2022-12-26T23:51:06.824Z,157.68
2022-12-26T23:54:15.359Z,158.03
2022-12-26T23:57:21.807Z,144.29
